sensor_id;sensor_type;location;lat;lon;timestamp;pressure;altitude;pressure_sealevel;temperature;humidity
61357;BME280;47227;46.752;23.576;2023-03-04T00:01:49;96357.85;;;1.34;72.07
61357;BME280;47227;46.752;23.576;2023-03-04T00:04:18;96357.94;;;1.34;72.54
61357;BME280;47227;46.752;23.576;2023-03-04T00:06:54;96357.75;;;1.36;72.54
61357;BME280;47227;46.752;23.576;2023-03-04T00:09:26;96362.91;;;1.39;72.63
61357;BME280;47227;46.752;23.576;2023-03-04T00:12:08;96360.30;;;1.42;72.92
61357;BME280;47227;46.752;23.576;2023-03-04T00:14:37;96362.63;;;1.45;72.69
61357;BME280;47227;46.752;23.576;2023-03-04T00:19:48;96363.06;;;1.50;73.19
61357;BME280;47227;46.752;23.576;2023-03-04T00:22:18;96366.95;;;1.54;73.06
61357;BME280;47227;46.752;23.576;2023-03-04T00:24:46;96367.24;;;1.57;73.08
61357;BME280;47227;46.752;23.576;2023-03-04T00:27:16;96360.40;;;1.61;73.34
61357;BME280;47227;46.752;23.576;2023-03-04T00:29:44;96362.00;;;1.63;73.29
61357;BME280;47227;46.752;23.576;2023-03-04T00:32:13;96357.01;;;1.64;73.14
61357;BME280;47227;46.752;23.576;2023-03-04T00:34:47;96354.50;;;1.64;73.21
61357;BME280;47227;46.752;23.576;2023-03-04T00:37:17;96356.10;;;1.62;72.75
61357;BME280;47227;46.752;23.576;2023-03-04T00:39:46;96359.64;;;1.59;72.66
61357;BME280;47227;46.752;23.576;2023-03-04T00:42:15;96363.15;;;1.56;72.57
61357;BME280;47227;46.752;23.576;2023-03-04T00:44:49;96358.61;;;1.54;72.25
61357;BME280;47227;46.752;23.576;2023-03-04T00:47:34;96354.94;;;1.53;72.59
61357;BME280;47227;46.752;23.576;2023-03-04T00:50:03;96352.83;;;1.52;72.57
61357;BME280;47227;46.752;23.576;2023-03-04T00:52:33;96354.95;;;1.50;72.57
61357;BME280;47227;46.752;23.576;2023-03-04T00:55:27;96354.93;;;1.47;72.55
61357;BME280;47227;46.752;23.576;2023-03-04T00:57:56;96348.56;;;1.46;72.34
61357;BME280;47227;46.752;23.576;2023-03-04T01:00:24;96348.30;;;1.42;72.19
61357;BME280;47227;46.752;23.576;2023-03-04T01:02:53;96344.92;;;1.39;72.26
61357;BME280;47227;46.752;23.576;2023-03-04T01:05:24;96346.52;;;1.34;72.34
61357;BME280;47227;46.752;23.576;2023-03-04T01:07:54;96346.19;;;1.32;72.19
61357;BME280;47227;46.752;23.576;2023-03-04T01:10:22;96345.25;;;1.28;72.33
61357;BME280;47227;46.752;23.576;2023-03-04T01:12:53;96339.25;;;1.23;72.38
61357;BME280;47227;46.752;23.576;2023-03-04T01:15:20;96341.80;;;1.19;72.22
61357;BME280;47227;46.752;23.576;2023-03-04T01:17:49;96336.55;;;1.15;72.26
61357;BME280;47227;46.752;23.576;2023-03-04T01:20:19;96332.21;;;1.10;72.11
61357;BME280;47227;46.752;23.576;2023-03-04T01:22:49;96334.24;;;1.06;71.97
61357;BME280;47227;46.752;23.576;2023-03-04T01:25:18;96327.73;;;1.02;72.18
61357;BME280;47227;46.752;23.576;2023-03-04T01:30:29;96329.29;;;0.99;72.35
61357;BME280;47227;46.752;23.576;2023-03-04T01:32:57;96327.83;;;0.98;72.46
61357;BME280;47227;46.752;23.576;2023-03-04T01:35:28;96327.98;;;0.98;72.52
61357;BME280;47227;46.752;23.576;2023-03-04T01:37:57;96326.64;;;1.00;72.70
61357;BME280;47227;46.752;23.576;2023-03-04T01:40:26;96326.64;;;1.02;72.34
61357;BME280;47227;46.752;23.576;2023-03-04T01:45:53;96318.21;;;1.07;72.56
61357;BME280;47227;46.752;23.576;2023-03-04T01:48:31;96314.84;;;1.07;72.72
61357;BME280;47227;46.752;23.576;2023-03-04T01:51:16;96306.52;;;1.11;73.00
61357;BME280;47227;46.752;23.576;2023-03-04T01:53:50;96303.09;;;1.16;72.93
61357;BME280;47227;46.752;23.576;2023-03-04T03:41:28;96251.20;;;-0.14;75.08
61357;BME280;47227;46.752;23.576;2023-03-04T04:24:40;96245.55;;;-0.66;74.88
61357;BME280;47227;46.752;23.576;2023-03-04T06:35:36;96260.48;;;0.24;74.56
61357;BME280;47227;46.752;23.576;2023-03-04T07:09:15;96262.35;;;0.79;72.93
61357;BME280;47227;46.752;23.576;2023-03-04T07:11:46;96260.96;;;0.87;73.26
61357;BME280;47227;46.752;23.576;2023-03-04T07:14:16;96258.06;;;0.96;72.94
61357;BME280;47227;46.752;23.576;2023-03-04T07:17:04;96259.07;;;1.06;72.81
61357;BME280;47227;46.752;23.576;2023-03-04T07:19:39;96259.09;;;1.16;72.49
61357;BME280;47227;46.752;23.576;2023-03-04T07:25:32;96253.80;;;1.39;72.28
61357;BME280;47227;46.752;23.576;2023-03-04T07:27:59;96250.95;;;1.46;71.02
61357;BME280;47227;46.752;23.576;2023-03-04T07:30:29;96250.67;;;1.56;70.90
61357;BME280;47227;46.752;23.576;2023-03-04T07:49:26;96228.19;;;2.41;70.76
61357;BME280;47227;46.752;23.576;2023-03-04T08:12:24;96214.52;;;3.63;68.30
61357;BME280;47227;46.752;23.576;2023-03-04T08:34:32;96202.95;;;4.79;65.50
61357;BME280;47227;46.752;23.576;2023-03-04T08:41:16;96197.23;;;5.12;64.41
61357;BME280;47227;46.752;23.576;2023-03-04T08:47:21;96194.27;;;5.35;61.50
61357;BME280;47227;46.752;23.576;2023-03-04T08:56:40;96186.79;;;5.91;60.93
61357;BME280;47227;46.752;23.576;2023-03-04T09:15:58;96161.33;;;6.92;53.08
61357;BME280;47227;46.752;23.576;2023-03-04T09:18:26;96156.61;;;7.12;52.82
61357;BME280;47227;46.752;23.576;2023-03-04T09:20:53;96149.88;;;7.30;50.48
61357;BME280;47227;46.752;23.576;2023-03-04T09:23:19;96152.19;;;7.43;48.29
61357;BME280;47227;46.752;23.576;2023-03-04T09:25:47;96156.83;;;7.61;50.81
61357;BME280;47227;46.752;23.576;2023-03-04T09:28:15;96154.98;;;7.82;51.29
61357;BME280;47227;46.752;23.576;2023-03-04T09:30:42;96156.03;;;7.98;51.25
61357;BME280;47227;46.752;23.576;2023-03-04T09:33:10;96155.48;;;8.12;49.29
61357;BME280;47227;46.752;23.576;2023-03-04T09:35:36;96151.39;;;8.26;49.11
61357;BME280;47227;46.752;23.576;2023-03-04T09:38:03;96144.67;;;8.39;46.85
61357;BME280;47227;46.752;23.576;2023-03-04T09:40:38;96148.70;;;8.35;44.74
61357;BME280;47227;46.752;23.576;2023-03-04T09:43:10;96147.20;;;8.39;45.55
61357;BME280;47227;46.752;23.576;2023-03-04T09:45:42;96144.81;;;8.55;46.91
61357;BME280;47227;46.752;23.576;2023-03-04T09:48:15;96146.64;;;8.56;45.41
61357;BME280;47227;46.752;23.576;2023-03-04T09:50:55;96144.84;;;8.64;47.64
61357;BME280;47227;46.752;23.576;2023-03-04T09:53:35;96142.98;;;8.75;47.62
61357;BME280;47227;46.752;23.576;2023-03-04T09:56:06;96134.23;;;8.77;48.30
61357;BME280;47227;46.752;23.576;2023-03-04T09:58:50;96132.65;;;8.77;47.70
61357;BME280;47227;46.752;23.576;2023-03-04T10:01:25;96130.06;;;8.75;46.29
61357;BME280;47227;46.752;23.576;2023-03-04T10:04:00;96127.19;;;8.65;45.33
61357;BME280;47227;46.752;23.576;2023-03-04T10:06:30;96123.98;;;8.64;45.02
61357;BME280;47227;46.752;23.576;2023-03-04T10:09:02;96125.94;;;8.59;45.26
61357;BME280;47227;46.752;23.576;2023-03-04T10:11:41;96120.00;;;8.63;45.17
61357;BME280;47227;46.752;23.576;2023-03-04T10:14:27;96114.98;;;8.67;44.87
61357;BME280;47227;46.752;23.576;2023-03-04T10:17:20;96110.32;;;8.84;44.80
61357;BME280;47227;46.752;23.576;2023-03-04T10:19:58;96100.07;;;9.07;44.93
61357;BME280;47227;46.752;23.576;2023-03-04T10:22:31;96092.67;;;9.43;45.84
61357;BME280;47227;46.752;23.576;2023-03-04T10:25:14;96086.83;;;9.63;44.33
61357;BME280;47227;46.752;23.576;2023-03-04T10:27:54;96083.41;;;9.68;43.85
61357;BME280;47227;46.752;23.576;2023-03-04T10:30:50;96079.33;;;9.63;44.47
61357;BME280;47227;46.752;23.576;2023-03-04T10:33:21;96071.38;;;9.73;43.99
61357;BME280;47227;46.752;23.576;2023-03-04T10:36:01;96071.17;;;9.97;44.95
61357;BME280;47227;46.752;23.576;2023-03-04T10:38:32;96070.09;;;9.98;42.98
61357;BME280;47227;46.752;23.576;2023-03-04T10:41:00;96064.33;;;10.03;42.45
61357;BME280;47227;46.752;23.576;2023-03-04T10:43:27;96062.04;;;10.28;42.64
61357;BME280;47227;46.752;23.576;2023-03-04T10:45:56;96059.10;;;10.61;43.25
61357;BME280;47227;46.752;23.576;2023-03-04T10:48:26;96056.49;;;10.92;43.01
61357;BME280;47227;46.752;23.576;2023-03-04T10:50:53;96052.13;;;11.08;41.54
61357;BME280;47227;46.752;23.576;2023-03-04T10:53:27;96048.66;;;11.00;39.33
61357;BME280;47227;46.752;23.576;2023-03-04T10:55:55;96039.19;;;11.14;40.44
61357;BME280;47227;46.752;23.576;2023-03-04T10:58:21;96035.63;;;11.18;40.87
61357;BME280;47227;46.752;23.576;2023-03-04T11:01:01;96037.57;;;11.17;40.21
61357;BME280;47227;46.752;23.576;2023-03-04T11:03:33;96032.77;;;11.14;40.04
61357;BME280;47227;46.752;23.576;2023-03-04T11:06:18;96033.70;;;11.38;40.02
61357;BME280;47227;46.752;23.576;2023-03-04T11:08:54;96031.27;;;11.88;39.67
61357;BME280;47227;46.752;23.576;2023-03-04T11:11:37;96025.27;;;12.20;38.98
61357;BME280;47227;46.752;23.576;2023-03-04T11:14:16;96025.54;;;12.62;38.83
61357;BME280;47227;46.752;23.576;2023-03-04T11:16:58;96017.65;;;13.01;38.95
61357;BME280;47227;46.752;23.576;2023-03-04T11:19:41;96010.86;;;13.15;37.26
61357;BME280;47227;46.752;23.576;2023-03-04T11:22:14;96012.04;;;13.41;36.05
61357;BME280;47227;46.752;23.576;2023-03-04T11:24:43;96009.84;;;13.35;36.02
61357;BME280;47227;46.752;23.576;2023-03-04T11:27:28;96005.91;;;12.96;36.38
61357;BME280;47227;46.752;23.576;2023-03-04T11:30:23;96001.66;;;12.92;36.54
61357;BME280;47227;46.752;23.576;2023-03-04T11:32:50;95997.75;;;13.44;35.68
61357;BME280;47227;46.752;23.576;2023-03-04T11:35:26;95990.77;;;13.38;35.69
61357;BME280;47227;46.752;23.576;2023-03-04T11:38:09;95990.66;;;13.33;35.89
61357;BME280;47227;46.752;23.576;2023-03-04T11:40:49;95990.97;;;13.57;35.79
61357;BME280;47227;46.752;23.576;2023-03-04T11:43:37;95985.60;;;14.10;35.40
61357;BME280;47227;46.752;23.576;2023-03-04T11:46:17;95975.77;;;14.43;34.44
61357;BME280;47227;46.752;23.576;2023-03-04T11:49:18;95972.06;;;14.08;34.37
61357;BME280;47227;46.752;23.576;2023-03-04T11:52:04;95966.38;;;13.63;34.94
61357;BME280;47227;46.752;23.576;2023-03-04T11:57:43;95960.21;;;13.72;35.35
61357;BME280;47227;46.752;23.576;2023-03-04T12:03:26;95952.97;;;14.20;34.57
61357;BME280;47227;46.752;23.576;2023-03-04T12:06:09;95948.00;;;13.74;34.66
61357;BME280;47227;46.752;23.576;2023-03-04T12:14:43;95943.46;;;13.00;37.01
61357;BME280;47227;46.752;23.576;2023-03-04T13:03:40;95886.35;;;19.00;27.10
61357;BME280;47227;46.752;23.576;2023-03-04T13:41:12;95833.77;;;20.45;23.15
61357;BME280;47227;46.752;23.576;2023-03-04T13:54:39;95815.79;;;18.59;25.37
61357;BME280;47227;46.752;23.576;2023-03-04T13:57:30;95810.88;;;18.91;25.39
61357;BME280;47227;46.752;23.576;2023-03-04T14:00:41;95811.17;;;19.13;24.79
61357;BME280;47227;46.752;23.576;2023-03-04T14:03:33;95803.86;;;19.14;24.64
61357;BME280;47227;46.752;23.576;2023-03-04T14:06:26;95801.38;;;19.29;24.41
61357;BME280;47227;46.752;23.576;2023-03-04T14:09:20;95799.58;;;20.28;24.09
61357;BME280;47227;46.752;23.576;2023-03-04T14:12:40;95796.02;;;20.39;23.43
61357;BME280;47227;46.752;23.576;2023-03-04T14:15:24;95797.82;;;20.47;23.76
61357;BME280;47227;46.752;23.576;2023-03-04T14:17:58;95798.98;;;20.88;22.85
61357;BME280;47227;46.752;23.576;2023-03-04T14:20:47;95795.44;;;20.97;22.69
61357;BME280;47227;46.752;23.576;2023-03-04T14:23:33;95791.15;;;21.37;22.30
61357;BME280;47227;46.752;23.576;2023-03-04T14:26:11;95787.20;;;21.28;22.15
61357;BME280;47227;46.752;23.576;2023-03-04T14:28:59;95782.04;;;21.73;21.98
61357;BME280;47227;46.752;23.576;2023-03-04T14:31:48;95784.52;;;22.26;21.46
61357;BME280;47227;46.752;23.576;2023-03-04T14:34:40;95782.98;;;22.55;20.94
61357;BME280;47227;46.752;23.576;2023-03-04T14:37:36;95776.17;;;22.50;20.57
61357;BME280;47227;46.752;23.576;2023-03-04T14:40:09;95769.60;;;22.32;20.80
61357;BME280;47227;46.752;23.576;2023-03-04T14:43:07;95768.88;;;22.05;21.10
61357;BME280;47227;46.752;23.576;2023-03-04T14:45:52;95764.26;;;22.18;21.16
61357;BME280;47227;46.752;23.576;2023-03-04T14:48:57;95760.88;;;22.15;21.12
61357;BME280;47227;46.752;23.576;2023-03-04T14:51:41;95760.51;;;22.40;21.16
61357;BME280;47227;46.752;23.576;2023-03-04T14:54:30;95759.71;;;22.49;20.94
61357;BME280;47227;46.752;23.576;2023-03-04T14:57:43;95760.69;;;22.11;20.83
61357;BME280;47227;46.752;23.576;2023-03-04T15:00:36;95756.21;;;22.24;21.14
61357;BME280;47227;46.752;23.576;2023-03-04T15:03:23;95756.74;;;22.31;21.06
61357;BME280;47227;46.752;23.576;2023-03-04T15:06:23;95750.42;;;22.34;20.91
61357;BME280;47227;46.752;23.576;2023-03-04T15:09:39;95755.02;;;22.34;21.50
61357;BME280;47227;46.752;23.576;2023-03-04T15:13:04;95745.92;;;22.22;20.76
61357;BME280;47227;46.752;23.576;2023-03-04T15:16:17;95743.51;;;21.64;20.50
61357;BME280;47227;46.752;23.576;2023-03-04T15:18:55;95745.24;;;20.46;20.88
61357;BME280;47227;46.752;23.576;2023-03-04T15:21:31;95744.04;;;19.19;22.07
61357;BME280;47227;46.752;23.576;2023-03-04T15:23:59;95738.09;;;17.95;23.08
61357;BME280;47227;46.752;23.576;2023-03-04T15:26:30;95734.53;;;16.79;24.22
61357;BME280;47227;46.752;23.576;2023-03-04T15:28:59;95735.22;;;15.95;25.36
61357;BME280;47227;46.752;23.576;2023-03-04T15:31:29;95734.45;;;15.31;26.07
61357;BME280;47227;46.752;23.576;2023-03-04T15:33:55;95725.55;;;14.69;26.77
61357;BME280;47227;46.752;23.576;2023-03-04T15:36:22;95719.88;;;14.14;27.30
61357;BME280;47227;46.752;23.576;2023-03-04T15:38:51;95716.34;;;13.58;28.06
61357;BME280;47227;46.752;23.576;2023-03-04T15:41:22;95712.08;;;13.10;28.80
61357;BME280;47227;46.752;23.576;2023-03-04T15:43:50;95709.36;;;12.67;29.43
61357;BME280;47227;46.752;23.576;2023-03-04T15:46:17;95711.06;;;12.29;30.16
61357;BME280;47227;46.752;23.576;2023-03-04T15:48:45;95705.33;;;11.94;30.95
61357;BME280;47227;46.752;23.576;2023-03-04T15:51:16;95700.59;;;11.60;31.11
61357;BME280;47227;46.752;23.576;2023-03-04T15:53:48;95702.29;;;11.28;31.62
61357;BME280;47227;46.752;23.576;2023-03-04T15:56:19;95697.02;;;10.93;32.11
61357;BME280;47227;46.752;23.576;2023-03-04T15:58:52;95694.61;;;10.62;32.65
61357;BME280;47227;46.752;23.576;2023-03-04T16:01:27;95689.59;;;10.35;32.74
61357;BME280;47227;46.752;23.576;2023-03-04T16:04:38;95687.59;;;10.00;33.30
61357;BME280;47227;46.752;23.576;2023-03-04T16:08:18;95684.89;;;9.63;34.19
61357;BME280;47227;46.752;23.576;2023-03-04T16:11:41;95680.75;;;9.32;34.68
61357;BME280;47227;46.752;23.576;2023-03-04T16:18:28;95674.03;;;8.89;34.98
61357;BME280;47227;46.752;23.576;2023-03-04T16:21:38;95675.85;;;8.71;35.58
61357;BME280;47227;46.752;23.576;2023-03-04T16:28:28;95678.57;;;8.33;36.88
61357;BME280;47227;46.752;23.576;2023-03-04T16:31:59;95675.35;;;8.15;39.37
61357;BME280;47227;46.752;23.576;2023-03-04T16:36:17;95671.23;;;7.95;38.15
61357;BME280;47227;46.752;23.576;2023-03-04T16:39:40;95673.25;;;7.79;38.39
61357;BME280;47227;46.752;23.576;2023-03-04T16:43:11;95676.91;;;7.62;38.80
61357;BME280;47227;46.752;23.576;2023-03-04T16:47:00;95678.42;;;7.41;39.25
61357;BME280;47227;46.752;23.576;2023-03-04T16:50:27;95680.70;;;7.24;40.54
61357;BME280;47227;46.752;23.576;2023-03-04T16:54:26;95676.67;;;7.00;42.11
61357;BME280;47227;46.752;23.576;2023-03-04T16:58:11;95677.54;;;6.80;41.91
61357;BME280;47227;46.752;23.576;2023-03-04T17:01:59;95672.52;;;6.60;42.69
61357;BME280;47227;46.752;23.576;2023-03-04T17:09:05;95674.27;;;6.36;42.29
61357;BME280;47227;46.752;23.576;2023-03-04T17:13:03;95683.11;;;6.23;42.39
61357;BME280;47227;46.752;23.576;2023-03-04T17:20:47;95692.36;;;5.99;43.68
61357;BME280;47227;46.752;23.576;2023-03-04T17:44:34;95704.14;;;5.80;45.95
61357;BME280;47227;46.752;23.576;2023-03-04T17:47:51;95708.21;;;5.57;45.65
61357;BME280;47227;46.752;23.576;2023-03-04T17:51:04;95705.14;;;5.39;45.81
61357;BME280;47227;46.752;23.576;2023-03-04T17:55:14;95708.49;;;5.23;45.48
61357;BME280;47227;46.752;23.576;2023-03-04T17:58:46;95710.07;;;5.05;45.58
61357;BME280;47227;46.752;23.576;2023-03-04T18:02:12;95711.18;;;4.90;45.78
61357;BME280;47227;46.752;23.576;2023-03-04T18:06:14;95713.13;;;4.78;46.25
61357;BME280;47227;46.752;23.576;2023-03-04T18:08:44;95717.46;;;4.66;46.01
61357;BME280;47227;46.752;23.576;2023-03-04T18:11:12;95716.58;;;4.59;46.07
61357;BME280;47227;46.752;23.576;2023-03-04T18:13:41;95720.88;;;4.52;45.99
61357;BME280;47227;46.752;23.576;2023-03-04T18:16:10;95723.52;;;4.46;46.77
61357;BME280;47227;46.752;23.576;2023-03-04T18:18:42;95725.36;;;4.42;46.47
61357;BME280;47227;46.752;23.576;2023-03-04T18:21:10;95731.50;;;4.39;46.45
61357;BME280;47227;46.752;23.576;2023-03-04T18:23:38;95731.38;;;4.36;46.31
61357;BME280;47227;46.752;23.576;2023-03-04T18:26:06;95733.17;;;4.32;46.32
61357;BME280;47227;46.752;23.576;2023-03-04T18:28:34;95736.55;;;4.28;46.68
61357;BME280;47227;46.752;23.576;2023-03-04T18:31:02;95739.89;;;4.26;46.85
61357;BME280;47227;46.752;23.576;2023-03-04T18:33:31;95741.55;;;4.24;46.75
61357;BME280;47227;46.752;23.576;2023-03-04T18:36:02;95738.60;;;4.20;46.79
61357;BME280;47227;46.752;23.576;2023-03-04T18:38:32;95736.74;;;4.16;46.80
61357;BME280;47227;46.752;23.576;2023-03-04T18:41:02;95737.92;;;4.11;46.90
61357;BME280;47227;46.752;23.576;2023-03-04T18:43:30;95736.03;;;4.06;47.20
61357;BME280;47227;46.752;23.576;2023-03-04T18:46:03;95740.59;;;4.03;47.06
61357;BME280;47227;46.752;23.576;2023-03-04T18:48:37;95739.97;;;3.97;47.13
61357;BME280;47227;46.752;23.576;2023-03-04T18:51:05;95738.02;;;3.92;47.07
61357;BME280;47227;46.752;23.576;2023-03-04T18:53:34;95737.89;;;3.85;47.33
61357;BME280;47227;46.752;23.576;2023-03-04T18:56:09;95736.96;;;3.78;47.36
61357;BME280;47227;46.752;23.576;2023-03-04T18:58:39;95733.70;;;3.71;47.57
61357;BME280;47227;46.752;23.576;2023-03-04T19:01:10;95732.81;;;3.64;47.73
61357;BME280;47227;46.752;23.576;2023-03-04T19:03:40;95730.74;;;3.60;48.36
61357;BME280;47227;46.752;23.576;2023-03-04T19:06:08;95736.52;;;3.58;48.40
61357;BME280;47227;46.752;23.576;2023-03-04T19:08:36;95738.19;;;3.57;48.24
61357;BME280;47227;46.752;23.576;2023-03-04T19:11:05;95740.10;;;3.55;48.26
61357;BME280;47227;46.752;23.576;2023-03-04T19:13:33;95739.05;;;3.51;48.26
61357;BME280;47227;46.752;23.576;2023-03-04T19:16:01;95738.75;;;3.46;48.30
61357;BME280;47227;46.752;23.576;2023-03-04T19:18:29;95736.91;;;3.42;48.52
61357;BME280;47227;46.752;23.576;2023-03-04T19:20:59;95740.41;;;3.39;48.71
61357;BME280;47227;46.752;23.576;2023-03-04T19:23:27;95735.35;;;3.36;48.56
61357;BME280;47227;46.752;23.576;2023-03-04T19:25:56;95737.85;;;3.32;48.81
61357;BME280;47227;46.752;23.576;2023-03-04T19:28:24;95741.06;;;3.31;48.96
61357;BME280;47227;46.752;23.576;2023-03-04T19:30:51;95743.13;;;3.27;48.75
61357;BME280;47227;46.752;23.576;2023-03-04T19:33:21;95743.98;;;3.23;48.84
61357;BME280;47227;46.752;23.576;2023-03-04T19:35:48;95743.27;;;3.18;48.93
61357;BME280;47227;46.752;23.576;2023-03-04T19:38:17;95742.27;;;3.12;49.35
61357;BME280;47227;46.752;23.576;2023-03-04T19:40:44;95744.15;;;3.06;49.41
61357;BME280;47227;46.752;23.576;2023-03-04T19:43:13;95746.39;;;3.01;49.68
61357;BME280;47227;46.752;23.576;2023-03-04T19:45:42;95746.69;;;2.96;49.63
61357;BME280;47227;46.752;23.576;2023-03-04T19:48:09;95748.40;;;2.93;50.63
61357;BME280;47227;46.752;23.576;2023-03-04T19:50:37;95747.80;;;2.88;50.16
61357;BME280;47227;46.752;23.576;2023-03-04T19:53:05;95745.52;;;2.85;50.12
61357;BME280;47227;46.752;23.576;2023-03-04T19:55:36;95746.39;;;2.85;50.21
61357;BME280;47227;46.752;23.576;2023-03-04T19:58:04;95744.33;;;2.83;50.26
61357;BME280;47227;46.752;23.576;2023-03-04T20:00:34;95742.23;;;2.81;50.46
61357;BME280;47227;46.752;23.576;2023-03-04T20:03:02;95742.79;;;2.83;50.58
61357;BME280;47227;46.752;23.576;2023-03-04T20:05:34;95742.23;;;2.87;50.47
61357;BME280;47227;46.752;23.576;2023-03-04T20:08:02;95745.84;;;2.90;50.42
61357;BME280;47227;46.752;23.576;2023-03-04T20:10:32;95741.58;;;2.88;50.44
61357;BME280;47227;46.752;23.576;2023-03-04T20:13:04;95740.45;;;2.85;50.51
61357;BME280;47227;46.752;23.576;2023-03-04T20:15:32;95738.14;;;2.80;50.49
61357;BME280;47227;46.752;23.576;2023-03-04T20:18:02;95736.45;;;2.76;50.92
61357;BME280;47227;46.752;23.576;2023-03-04T20:20:30;95734.73;;;2.73;50.88
61357;BME280;47227;46.752;23.576;2023-03-04T20:22:58;95736.33;;;2.70;50.87
61357;BME280;47227;46.752;23.576;2023-03-04T20:25:26;95733.77;;;2.67;51.09
61357;BME280;47227;46.752;23.576;2023-03-04T20:27:55;95730.40;;;2.67;51.39
61357;BME280;47227;46.752;23.576;2023-03-04T20:30:24;95727.89;;;2.66;51.38
61357;BME280;47227;46.752;23.576;2023-03-04T20:32:52;95726.45;;;2.65;51.55
61357;BME280;47227;46.752;23.576;2023-03-04T20:35:20;95726.96;;;2.63;51.76
61357;BME280;47227;46.752;23.576;2023-03-04T20:37:48;95727.11;;;2.57;51.55
61357;BME280;47227;46.752;23.576;2023-03-04T20:40:16;95726.51;;;2.52;51.66
61357;BME280;47227;46.752;23.576;2023-03-04T20:42:44;95723.51;;;2.47;51.67
61357;BME280;47227;46.752;23.576;2023-03-04T20:45:13;95719.14;;;2.42;51.93
61357;BME280;47227;46.752;23.576;2023-03-04T20:47:43;95723.66;;;2.37;52.10
61357;BME280;47227;46.752;23.576;2023-03-04T21:12:18;95715.58;;;2.00;53.20
61357;BME280;47227;46.752;23.576;2023-03-04T23:15:13;95670.88;;;0.57;60.70
61357;BME280;47227;46.752;23.576;2023-03-04T23:52:16;95704.36;;;0.08;65.76
